Metar Aviation Weather Data KOMA

70°F Temp
59°F Dewpoint
% Humidity
Temperature
3 MPH
5 KM/H
3 KTS
70°
East North
East

Wind Speed
Mostly Cloudy
Conditions
Pressure 1016.92 (hPa) - 30.03 (in)
Visibility 10.0 (mi) - 16 (km)

Current Conditions
KOMA
Metar :KOMA 091152Z 07003KT 10SM BKN039 BKN049 21/15 A3003 RMK AO2 SLP159 T02060150 10228 20206 53015
Fri 9th August 06:52 am

  Metar Aviation API Data Provided by https://www.checkwx.com/ PHP scripts by weather34.com ©2019